createdAt,value
2023-03-19T00:00:00.707Z,9.57
2023-03-19T00:05:03.836Z,9.59
2023-03-19T00:10:05.670Z,9.61
2023-03-19T00:15:09.040Z,9.62
2023-03-19T00:20:12.402Z,9.61
2023-03-19T00:25:14.708Z,9.58
2023-03-19T00:30:16.243Z,9.55
2023-03-19T00:35:17.756Z,9.50
2023-03-19T00:40:19.642Z,9.45
2023-03-19T00:45:21.569Z,9.39
2023-03-19T00:50:25.537Z,9.31
2023-03-19T00:55:27.336Z,9.22
2023-03-19T01:00:29.106Z,9.16
2023-03-19T01:05:31.547Z,9.13
2023-03-19T01:10:34.809Z,9.15
2023-03-19T01:15:42.834Z,9.15
2023-03-19T01:20:44.549Z,9.11
2023-03-19T01:25:46.596Z,9.07
2023-03-19T01:30:48.682Z,9.04
2023-03-19T01:36:16.448Z,9.03
2023-03-19T01:41:38.676Z,9.01
2023-03-19T01:47:24.552Z,9.01
2023-03-19T01:52:44.420Z,9.02
2023-03-19T01:57:57.020Z,9.06
2023-03-19T02:03:25.554Z,9.10
2023-03-19T02:08:51.272Z,9.12
2023-03-19T02:13:52.909Z,9.14
2023-03-19T02:18:55.807Z,9.17
2023-03-19T02:24:12.778Z,9.22
2023-03-19T02:29:35.741Z,9.20
2023-03-19T02:34:42.248Z,9.19
2023-03-19T02:39:48.235Z,9.17
2023-03-19T02:44:49.731Z,9.11
2023-03-19T02:49:51.614Z,9.04
2023-03-19T02:54:53.060Z,8.93
2023-03-19T02:59:54.532Z,8.87
2023-03-19T03:04:56.810Z,8.81
2023-03-19T03:10:00.099Z,8.74
2023-03-19T03:15:02.023Z,8.73
2023-03-19T03:20:05.868Z,8.71
2023-03-19T03:25:07.960Z,8.70
2023-03-19T03:30:12.019Z,8.72
2023-03-19T03:35:15.750Z,8.74
2023-03-19T03:40:18.056Z,8.76
2023-03-19T03:45:19.741Z,8.76
2023-03-19T03:50:21.617Z,8.77
2023-03-19T03:55:28.112Z,8.74
2023-03-19T04:00:29.770Z,8.74
2023-03-19T04:05:32.179Z,8.75
2023-03-19T04:10:36.023Z,8.75
2023-03-19T04:15:37.664Z,8.72
2023-03-19T04:20:41.265Z,8.70
2023-03-19T04:25:42.770Z,8.65
2023-03-19T04:30:44.800Z,8.60
2023-03-19T04:35:46.856Z,8.55
2023-03-19T04:40:48.981Z,8.46
2023-03-19T04:45:51.137Z,8.38
2023-03-19T04:50:56.850Z,8.31
2023-03-19T04:55:58.568Z,8.23
2023-03-19T05:01:02.033Z,8.18
2023-03-19T05:06:24.076Z,8.13
2023-03-19T05:11:25.930Z,8.09
2023-03-19T05:16:35.579Z,8.06
2023-03-19T05:21:37.539Z,8.01
2023-03-19T05:26:39.192Z,7.95
2023-03-19T05:31:52.809Z,7.93
2023-03-19T05:36:56.864Z,7.91
2023-03-19T05:41:59.019Z,7.95
2023-03-19T05:47:03.928Z,7.97
2023-03-19T05:52:09.308Z,7.96
2023-03-19T05:57:13.272Z,7.98
2023-03-19T06:02:23.310Z,7.98
2023-03-19T06:07:32.177Z,7.99
2023-03-19T06:12:36.111Z,8.00
2023-03-19T06:18:04.085Z,7.98
2023-03-19T06:23:05.819Z,7.98
2023-03-19T06:28:07.897Z,8.01
2023-03-19T06:33:14.440Z,8.04
2023-03-19T06:38:16.237Z,8.08
2023-03-19T06:43:18.173Z,8.16
2023-03-19T06:48:19.595Z,8.27
2023-03-19T06:53:21.469Z,8.37
2023-03-19T06:58:22.943Z,8.45
2023-03-19T07:03:24.535Z,8.61
2023-03-19T07:08:29.529Z,8.74
2023-03-19T07:13:31.054Z,8.86
2023-03-19T07:18:32.578Z,9.03
2023-03-19T07:23:34.328Z,9.21
2023-03-19T07:28:36.063Z,9.39
2023-03-19T07:33:37.528Z,9.55
2023-03-19T07:38:38.993Z,9.75
2023-03-19T07:43:40.433Z,9.95
2023-03-19T07:48:41.911Z,10.20
2023-03-19T07:53:43.365Z,10.37
2023-03-19T07:58:44.796Z,10.57
2023-03-19T08:03:48.275Z,10.73
2023-03-19T08:08:49.823Z,10.87
2023-03-19T08:13:51.262Z,11.00
2023-03-19T08:18:52.805Z,11.12
2023-03-19T08:23:54.292Z,11.29
2023-03-19T08:28:55.782Z,11.45
2023-03-19T08:33:59.982Z,11.57
2023-03-19T08:39:01.458Z,11.68
2023-03-19T08:44:03.304Z,11.76
2023-03-19T08:49:04.771Z,11.85
2023-03-19T08:54:06.285Z,11.94
2023-03-19T08:59:07.812Z,12.07
2023-03-19T09:04:09.364Z,12.13
2023-03-19T09:09:11.087Z,12.17
2023-03-19T09:14:13.181Z,12.20
2023-03-19T09:19:15.041Z,12.23
2023-03-19T09:24:19.353Z,12.23
2023-03-19T09:29:20.811Z,12.25
2023-03-19T09:34:22.291Z,12.30
2023-03-19T09:39:23.766Z,12.35
2023-03-19T09:44:33.988Z,12.43
2023-03-19T09:49:43.608Z,12.54
2023-03-19T09:54:48.358Z,12.65
2023-03-19T09:59:49.873Z,12.82
2023-03-19T10:05:07.692Z,13.10
2023-03-19T10:10:44.248Z,13.49
2023-03-19T10:15:46.700Z,13.85
2023-03-19T10:21:13.557Z,14.24
2023-03-19T10:26:20.631Z,14.58
2023-03-19T10:31:35.982Z,14.89
2023-03-19T10:36:38.467Z,15.20
2023-03-19T10:41:39.903Z,15.43
2023-03-19T10:46:41.884Z,15.57
2023-03-19T10:51:46.134Z,15.62
2023-03-19T10:56:48.592Z,15.64
2023-03-19T11:01:50.029Z,15.65
2023-03-19T11:06:53.956Z,15.68
2023-03-19T11:12:05.482Z,15.77
2023-03-19T11:17:18.108Z,15.87
2023-03-19T11:22:22.967Z,15.98
2023-03-19T11:27:34.673Z,16.05
2023-03-19T11:32:55.003Z,16.13
2023-03-19T11:37:58.665Z,16.22
2023-03-19T11:43:22.024Z,16.38
2023-03-19T11:48:35.416Z,16.55
2023-03-19T11:54:07.900Z,16.70
2023-03-19T11:59:29.602Z,16.84
2023-03-19T12:05:09.457Z,16.94
2023-03-19T12:10:58.733Z,16.98
2023-03-19T12:16:21.748Z,17.01
2023-03-19T12:21:51.506Z,17.03
2023-03-19T12:26:58.964Z,17.11
2023-03-19T12:32:07.328Z,17.27
2023-03-19T12:37:22.464Z,17.48
2023-03-19T12:42:38.307Z,17.63
2023-03-19T12:47:42.678Z,17.72
2023-03-19T12:52:49.443Z,17.76
2023-03-19T12:57:54.950Z,17.81
2023-03-19T13:03:07.432Z,17.94
2023-03-19T13:08:19.062Z,18.04
2023-03-19T13:13:50.866Z,17.98
2023-03-19T13:19:06.424Z,17.89
2023-03-19T13:24:28.255Z,17.74
2023-03-19T13:29:36.702Z,17.57
2023-03-19T13:34:38.453Z,17.45
2023-03-19T13:39:42.140Z,17.27
2023-03-19T13:44:57.882Z,17.12
2023-03-19T13:50:15.626Z,16.86
2023-03-19T13:55:32.752Z,16.56
2023-03-19T14:00:44.049Z,16.41
2023-03-19T14:05:48.256Z,16.33
2023-03-19T14:10:53.127Z,16.32
2023-03-19T14:16:04.782Z,16.30
2023-03-19T14:21:13.040Z,16.29
2023-03-19T14:26:28.750Z,16.35
2023-03-19T14:31:33.312Z,16.34
2023-03-19T14:36:41.567Z,16.33
2023-03-19T14:41:47.406Z,16.31
2023-03-19T14:47:19.984Z,16.35
2023-03-19T14:52:30.629Z,16.23
2023-03-19T14:57:33.163Z,16.19
2023-03-19T15:02:49.666Z,16.08
2023-03-19T15:07:55.247Z,15.80
2023-03-19T15:13:25.978Z,15.57
2023-03-19T15:18:28.131Z,15.43
2023-03-19T15:23:30.873Z,15.27
2023-03-19T15:28:44.645Z,15.14
2023-03-19T15:33:47.171Z,14.99
2023-03-19T15:38:54.953Z,14.82
2023-03-19T15:43:56.776Z,14.66
2023-03-19T15:49:16.713Z,14.57
2023-03-19T15:54:19.479Z,14.45
2023-03-19T15:59:26.484Z,14.26
2023-03-19T16:04:30.020Z,13.96
2023-03-19T16:09:34.096Z,13.64
2023-03-19T16:14:43.357Z,13.37
2023-03-19T16:19:50.696Z,13.24
2023-03-19T16:24:53.724Z,13.08
2023-03-19T16:29:59.736Z,12.95
2023-03-19T16:35:14.144Z,12.85
2023-03-19T16:40:15.941Z,12.79
2023-03-19T16:45:17.661Z,12.68
2023-03-19T16:50:29.969Z,12.58
2023-03-19T16:55:35.530Z,12.50
2023-03-19T17:00:37.269Z,12.45
2023-03-19T17:05:38.727Z,12.45
2023-03-19T17:10:45.689Z,12.46
2023-03-19T17:15:49.164Z,12.44
2023-03-19T17:20:55.377Z,12.42
2023-03-19T17:25:57.423Z,12.39
2023-03-19T17:30:59.083Z,12.36
2023-03-19T17:36:00.565Z,12.31
2023-03-19T17:41:02.600Z,12.28
2023-03-19T17:46:04.246Z,12.18
2023-03-19T17:51:05.876Z,12.01
2023-03-19T17:56:13.600Z,11.90
2023-03-19T18:01:24.917Z,11.83
2023-03-19T18:06:32.295Z,11.82
2023-03-19T18:11:33.796Z,11.90
2023-03-19T18:16:35.735Z,11.96
2023-03-19T18:21:37.181Z,11.98
2023-03-19T18:26:38.634Z,11.96
2023-03-19T18:31:41.949Z,11.98
2023-03-19T18:36:43.545Z,11.97
2023-03-19T18:41:45.456Z,11.94
2023-03-19T18:46:46.976Z,11.93
2023-03-19T18:52:01.688Z,11.97
2023-03-19T18:57:05.636Z,11.99
2023-03-19T19:02:31.360Z,11.94
2023-03-19T19:07:32.872Z,11.84
2023-03-19T19:12:35.320Z,11.85
2023-03-19T19:17:36.969Z,11.91
2023-03-19T19:22:38.452Z,11.94
2023-03-19T19:27:40.244Z,11.98
2023-03-19T19:32:42.157Z,11.97
2023-03-19T19:37:43.683Z,11.98
2023-03-19T19:42:46.131Z,11.96
2023-03-19T19:47:48.844Z,11.93
2023-03-19T19:52:50.361Z,11.94
2023-03-19T19:57:54.402Z,11.94
2023-03-19T20:02:57.549Z,11.93
2023-03-19T20:08:01.551Z,11.92
2023-03-19T20:13:03.201Z,11.88
2023-03-19T20:18:06.513Z,11.84
2023-03-19T20:23:08.016Z,11.79
2023-03-19T20:28:19.067Z,11.73
2023-03-19T20:33:21.496Z,11.70
2023-03-19T20:38:23.092Z,11.67
2023-03-19T20:43:30.202Z,11.61
2023-03-19T20:48:33.531Z,11.53
2023-03-19T20:53:35.252Z,11.43
2023-03-19T20:58:37.034Z,11.36
2023-03-19T21:03:38.804Z,11.33
2023-03-19T21:08:46.052Z,11.32
2023-03-19T21:13:53.156Z,11.27
2023-03-19T21:18:54.904Z,11.18
2023-03-19T21:24:03.946Z,11.07
2023-03-19T21:29:11.897Z,10.95
2023-03-19T21:34:14.708Z,10.84
2023-03-19T21:39:17.027Z,10.72
2023-03-19T21:44:21.831Z,10.64
2023-03-19T21:49:23.285Z,10.65
2023-03-19T21:54:24.849Z,10.68
2023-03-19T21:59:32.130Z,10.70
2023-03-19T22:04:34.069Z,10.74
2023-03-19T22:09:35.969Z,10.73
2023-03-19T22:14:38.367Z,10.70
2023-03-19T22:19:39.792Z,10.73
2023-03-19T22:24:41.207Z,10.77
2023-03-19T22:29:44.257Z,10.84
2023-03-19T22:34:45.746Z,10.88
2023-03-19T22:39:47.471Z,10.92
2023-03-19T22:44:49.521Z,10.86
2023-03-19T22:49:51.252Z,10.81
2023-03-19T22:54:53.635Z,10.75
2023-03-19T22:59:55.272Z,10.62
2023-03-19T23:04:56.761Z,10.42
2023-03-19T23:09:58.193Z,10.21
2023-03-19T23:14:59.712Z,10.04
2023-03-19T23:20:10.690Z,9.98
2023-03-19T23:25:15.113Z,10.10
2023-03-19T23:30:23.443Z,10.24
2023-03-19T23:35:26.958Z,10.36
2023-03-19T23:40:31.935Z,10.41
2023-03-19T23:45:37.474Z,10.40
2023-03-19T23:50:39.281Z,10.38
2023-03-19T23:55:40.750Z,10.43
